createdAt,value
2019-05-19T00:00:45.971Z,14.69
2019-05-19T00:03:12.102Z,14.63
2019-05-19T00:05:38.319Z,14.61
2019-05-19T00:08:04.492Z,14.59
2019-05-19T00:10:30.683Z,14.57
2019-05-19T00:12:56.881Z,14.53
2019-05-19T00:15:23.204Z,14.48
2019-05-19T00:17:49.288Z,14.42
2019-05-19T00:20:15.687Z,14.36
2019-05-19T00:22:41.930Z,14.29
2019-05-19T00:25:08.484Z,14.22
2019-05-19T00:27:38.618Z,14.16
2019-05-19T00:30:06.851Z,14.05
2019-05-19T00:32:33.045Z,13.96
2019-05-19T00:34:59.220Z,13.88
2019-05-19T00:37:25.331Z,13.84
2019-05-19T00:39:51.531Z,13.79
2019-05-19T00:42:17.653Z,13.75
2019-05-19T00:44:43.871Z,13.72
2019-05-19T00:47:10.278Z,13.67
2019-05-19T00:49:41.421Z,13.61
2019-05-19T00:52:04.698Z,13.57
2019-05-19T00:54:31.017Z,13.52
2019-05-19T00:56:57.479Z,13.49
2019-05-19T00:59:24.690Z,13.44
2019-05-19T01:01:50.953Z,13.38
2019-05-19T01:04:17.603Z,13.33
2019-05-19T01:06:43.869Z,13.29
2019-05-19T01:09:10.242Z,13.26
2019-05-19T01:11:36.473Z,13.21
2019-05-19T01:14:03.193Z,13.16
2019-05-19T01:16:29.285Z,13.10
2019-05-19T01:18:55.484Z,13.04
2019-05-19T01:21:22.580Z,12.99
2019-05-19T01:23:48.886Z,12.95
2019-05-19T01:26:14.980Z,12.94
2019-05-19T01:28:41.184Z,12.91
2019-05-19T01:31:07.327Z,12.87
2019-05-19T01:33:33.693Z,12.85
2019-05-19T01:35:59.888Z,12.81
2019-05-19T01:38:25.967Z,12.79
2019-05-19T01:40:52.176Z,12.74
2019-05-19T01:43:18.338Z,12.70
2019-05-19T01:45:45.160Z,12.68
2019-05-19T01:48:11.418Z,12.68
2019-05-19T01:50:37.611Z,12.63
2019-05-19T01:53:04.809Z,12.60
2019-05-19T01:55:31.010Z,12.59
2019-05-19T01:57:57.163Z,12.56
2019-05-19T02:00:24.773Z,12.56
2019-05-19T02:02:51.033Z,12.57
2019-05-19T02:05:17.680Z,12.52
2019-05-19T02:07:43.943Z,12.48
2019-05-19T02:10:10.651Z,12.49
2019-05-19T02:12:36.747Z,12.51
2019-05-19T02:15:04.720Z,12.52
2019-05-19T02:17:30.941Z,12.49
2019-05-19T02:19:58.119Z,12.50
2019-05-19T02:22:24.210Z,12.49
2019-05-19T02:24:51.529Z,12.46
2019-05-19T02:27:18.798Z,12.42
2019-05-19T02:29:45.072Z,12.43
2019-05-19T02:32:11.272Z,12.38
2019-05-19T02:34:37.378Z,12.36
2019-05-19T02:37:06.859Z,12.34
2019-05-19T02:39:33.024Z,12.30
2019-05-19T02:42:02.642Z,12.28
2019-05-19T02:44:32.243Z,12.27
2019-05-19T02:47:00.354Z,12.25
2019-05-19T02:49:28.858Z,12.24
2019-05-19T02:51:57.558Z,12.23
2019-05-19T02:54:24.895Z,12.21
2019-05-19T02:56:51.699Z,12.19
2019-05-19T02:59:20.007Z,12.18
2019-05-19T03:02:03.267Z,12.16
2019-05-19T03:04:30.291Z,12.14
2019-05-19T03:06:56.491Z,12.13
2019-05-19T03:09:22.655Z,12.10
2019-05-19T03:11:49.054Z,12.12
2019-05-19T03:14:15.275Z,12.11
2019-05-19T03:16:41.600Z,12.11
2019-05-19T03:19:07.864Z,12.13
2019-05-19T03:21:34.012Z,12.11
2019-05-19T03:24:00.199Z,12.09
2019-05-19T03:26:26.329Z,12.07
2019-05-19T03:28:52.538Z,12.07
2019-05-19T03:31:23.561Z,12.06
2019-05-19T03:33:51.597Z,12.08
2019-05-19T03:36:17.766Z,12.03
2019-05-19T03:38:43.909Z,12.03
2019-05-19T03:41:10.044Z,12.00
2019-05-19T03:43:36.243Z,11.99
2019-05-19T03:46:02.519Z,11.98
2019-05-19T03:48:28.745Z,11.99
2019-05-19T03:50:54.882Z,11.98
2019-05-19T03:53:21.064Z,11.98
2019-05-19T03:55:47.265Z,11.98
2019-05-19T03:58:13.512Z,11.98
2019-05-19T04:00:39.764Z,11.99
2019-05-19T04:03:05.898Z,12.01
2019-05-19T04:05:32.098Z,12.04
2019-05-19T04:07:58.193Z,12.05
2019-05-19T04:10:24.358Z,12.06
2019-05-19T04:12:50.494Z,12.10
2019-05-19T04:15:16.916Z,12.15
2019-05-19T04:17:43.114Z,12.17
2019-05-19T04:20:09.391Z,12.18
2019-05-19T04:22:36.689Z,12.22
2019-05-19T04:25:04.680Z,12.26
2019-05-19T04:27:30.863Z,12.32
2019-05-19T04:29:56.960Z,12.34
2019-05-19T04:32:23.150Z,12.34
2019-05-19T04:34:49.229Z,12.40
2019-05-19T04:37:15.430Z,12.44
2019-05-19T04:39:41.593Z,12.50
2019-05-19T04:42:07.830Z,12.53
2019-05-19T04:44:34.021Z,12.55
2019-05-19T04:47:00.128Z,12.60
2019-05-19T04:49:26.316Z,12.65
2019-05-19T04:52:06.113Z,12.69
2019-05-19T04:54:21.580Z,12.72
2019-05-19T04:56:47.670Z,12.76
2019-05-19T04:59:13.860Z,12.81
2019-05-19T05:01:39.955Z,12.84
2019-05-19T05:04:06.154Z,12.89
2019-05-19T05:06:32.390Z,12.93
2019-05-19T05:08:58.601Z,12.96
2019-05-19T05:11:24.752Z,13.00
2019-05-19T05:13:50.986Z,13.03
2019-05-19T05:16:17.275Z,13.04
2019-05-19T05:18:43.381Z,13.06
2019-05-19T05:21:09.576Z,13.06
2019-05-19T05:23:35.670Z,13.04
2019-05-19T05:26:01.862Z,13.03
2019-05-19T05:28:27.942Z,13.02
2019-05-19T05:30:54.170Z,13.03
2019-05-19T05:33:20.371Z,13.08
2019-05-19T05:35:46.513Z,13.12
2019-05-19T05:38:12.728Z,13.17
2019-05-19T05:40:38.823Z,13.22
2019-05-19T05:43:05.078Z,13.29
2019-05-19T05:45:31.234Z,13.32
2019-05-19T05:47:57.418Z,13.32
2019-05-19T05:50:23.559Z,13.34
2019-05-19T05:52:49.720Z,13.33
2019-05-19T05:55:16.026Z,13.35
2019-05-19T05:57:42.266Z,13.37
2019-05-19T06:00:09.176Z,13.45
2019-05-19T06:02:35.381Z,13.48
2019-05-19T06:05:01.838Z,13.52
2019-05-19T06:07:27.914Z,13.54
2019-05-19T06:09:54.132Z,13.63
2019-05-19T06:12:20.223Z,13.73
2019-05-19T06:14:47.542Z,13.80
2019-05-19T06:17:13.665Z,13.84
2019-05-19T06:19:39.872Z,13.91
2019-05-19T06:22:05.964Z,13.97
2019-05-19T06:24:32.171Z,14.02
2019-05-19T06:26:58.294Z,14.10
2019-05-19T06:29:24.442Z,14.18
2019-05-19T06:31:50.727Z,14.25
2019-05-19T06:34:16.808Z,14.34
2019-05-19T06:36:43.034Z,14.40
2019-05-19T06:39:09.134Z,14.49
2019-05-19T06:41:35.339Z,14.64
2019-05-19T06:44:03.430Z,14.75
2019-05-19T06:46:29.725Z,14.85
2019-05-19T06:48:55.903Z,14.93
2019-05-19T06:51:22.165Z,14.97
2019-05-19T06:53:48.423Z,15.10
2019-05-19T06:56:14.933Z,15.23
2019-05-19T06:58:41.179Z,15.30
2019-05-19T07:01:07.330Z,15.37
2019-05-19T07:03:33.522Z,15.49
2019-05-19T07:05:59.876Z,15.57
2019-05-19T07:08:26.106Z,15.67
2019-05-19T07:10:52.361Z,15.74
2019-05-19T07:13:18.578Z,15.78
2019-05-19T07:15:44.663Z,15.82
2019-05-19T07:18:10.884Z,15.90
2019-05-19T07:20:37.059Z,15.97
2019-05-19T07:23:03.639Z,16.01
2019-05-19T07:25:30.946Z,16.09
2019-05-19T07:27:57.150Z,16.19
2019-05-19T07:30:23.222Z,16.23
2019-05-19T07:32:49.402Z,16.31
2019-05-19T07:35:15.545Z,16.48
2019-05-19T07:37:41.739Z,16.56
2019-05-19T07:40:08.187Z,16.64
2019-05-19T07:42:34.628Z,16.69
2019-05-19T07:45:00.900Z,16.78
2019-05-19T07:47:27.146Z,16.85
2019-05-19T07:49:53.392Z,16.96
2019-05-19T07:52:19.632Z,17.01
2019-05-19T07:54:45.846Z,17.12
2019-05-19T07:57:12.021Z,17.23
2019-05-19T07:59:38.271Z,17.32
2019-05-19T08:02:04.562Z,17.41
2019-05-19T08:04:31.894Z,17.48
2019-05-19T08:06:58.077Z,17.57
2019-05-19T08:09:24.213Z,17.61
2019-05-19T08:11:50.348Z,17.66
2019-05-19T08:14:16.551Z,17.73
2019-05-19T08:16:42.701Z,17.81
2019-05-19T08:19:09.067Z,17.91
2019-05-19T08:21:36.319Z,17.95
2019-05-19T08:24:02.705Z,18.05
2019-05-19T08:26:28.834Z,18.14
2019-05-19T08:28:56.147Z,18.21
2019-05-19T08:31:22.352Z,18.30
2019-05-19T08:33:48.709Z,18.36
2019-05-19T08:36:14.959Z,18.47
2019-05-19T08:38:42.172Z,18.62
2019-05-19T08:41:08.385Z,18.74
2019-05-19T08:43:34.611Z,18.84
2019-05-19T08:46:00.702Z,18.96
2019-05-19T08:48:27.057Z,19.04
2019-05-19T08:50:53.153Z,19.11
2019-05-19T08:53:19.538Z,19.20
2019-05-19T08:55:45.624Z,19.28
2019-05-19T08:58:11.907Z,19.40
2019-05-19T09:00:38.628Z,19.51
2019-05-19T09:03:05.250Z,19.63
2019-05-19T09:05:31.574Z,19.80
2019-05-19T09:07:58.082Z,19.98
2019-05-19T09:10:24.309Z,20.10
2019-05-19T09:12:50.426Z,20.19
2019-05-19T09:15:16.963Z,20.27
2019-05-19T09:17:43.066Z,20.43
2019-05-19T09:20:12.819Z,20.59
2019-05-19T09:22:39.125Z,20.79
2019-05-19T09:25:06.411Z,20.97
2019-05-19T09:27:32.552Z,21.16
2019-05-19T09:29:58.696Z,21.28
2019-05-19T09:32:24.848Z,21.33
2019-05-19T09:34:51.082Z,21.36
2019-05-19T09:37:17.230Z,21.48
2019-05-19T09:39:43.488Z,21.65
2019-05-19T09:42:09.620Z,21.85
2019-05-19T09:44:35.835Z,22.05
2019-05-19T09:47:01.999Z,22.23
2019-05-19T09:49:31.655Z,22.48
2019-05-19T09:51:58.310Z,22.76
2019-05-19T09:54:24.587Z,22.97
2019-05-19T09:56:50.860Z,23.20
2019-05-19T09:59:17.042Z,23.47
2019-05-19T10:01:43.206Z,23.68
2019-05-19T10:04:09.386Z,23.87
2019-05-19T10:06:35.530Z,23.98
2019-05-19T10:09:04.229Z,24.12
2019-05-19T10:11:43.169Z,24.21
2019-05-19T10:14:09.387Z,24.12
2019-05-19T10:16:35.642Z,23.99
2019-05-19T10:19:01.897Z,23.77
2019-05-19T10:21:28.049Z,23.64
2019-05-19T10:23:54.233Z,23.68
2019-05-19T10:26:20.330Z,23.66
2019-05-19T10:28:46.534Z,23.50
2019-05-19T10:31:12.718Z,23.74
2019-05-19T10:33:38.961Z,23.99
2019-05-19T10:36:05.063Z,24.04
2019-05-19T10:38:31.267Z,24.24
2019-05-19T10:40:57.425Z,24.35
2019-05-19T10:43:23.763Z,24.34
2019-05-19T10:45:51.892Z,24.32
2019-05-19T10:48:18.088Z,24.21
2019-05-19T10:50:44.218Z,24.16
2019-05-19T10:53:10.443Z,24.19
2019-05-19T10:55:37.156Z,24.26
2019-05-19T10:58:03.660Z,24.50
2019-05-19T11:00:29.969Z,24.58
2019-05-19T11:02:56.158Z,24.74
2019-05-19T11:05:22.455Z,24.91
2019-05-19T11:07:48.615Z,24.95
2019-05-19T11:10:15.912Z,25.04
2019-05-19T11:12:42.175Z,25.12
2019-05-19T11:15:09.827Z,25.15
2019-05-19T11:17:36.161Z,25.32
2019-05-19T11:20:04.125Z,25.34
2019-05-19T11:22:30.373Z,25.41
2019-05-19T11:24:56.763Z,25.81
2019-05-19T11:27:22.950Z,26.15
2019-05-19T11:29:49.340Z,26.23
2019-05-19T11:32:16.357Z,26.81
2019-05-19T11:34:42.606Z,28.07
2019-05-19T11:37:08.991Z,28.70
2019-05-19T11:39:35.200Z,28.53
2019-05-19T11:42:01.398Z,29.75
2019-05-19T11:44:27.629Z,31.03
2019-05-19T11:46:53.804Z,31.38
2019-05-19T11:49:19.972Z,31.72
2019-05-19T11:51:46.660Z,32.04
2019-05-19T11:54:13.165Z,32.44
2019-05-19T11:56:39.396Z,32.90
2019-05-19T11:59:05.559Z,33.12
2019-05-19T12:01:31.749Z,33.12
2019-05-19T12:03:57.916Z,32.65
2019-05-19T12:06:38.014Z,32.66
2019-05-19T12:08:52.109Z,32.38
2019-05-19T12:11:18.442Z,32.21
2019-05-19T12:13:44.678Z,31.96
2019-05-19T12:16:10.832Z,32.03
2019-05-19T12:18:37.028Z,31.90
2019-05-19T12:21:03.220Z,31.10
2019-05-19T12:23:29.485Z,29.86
2019-05-19T12:25:55.825Z,29.45
2019-05-19T12:28:21.929Z,29.50
2019-05-19T12:30:48.151Z,30.19
2019-05-19T12:33:14.393Z,30.29
2019-05-19T12:35:40.632Z,30.30
2019-05-19T12:38:07.965Z,31.10
2019-05-19T12:40:34.065Z,31.89
2019-05-19T12:43:00.371Z,31.83
2019-05-19T12:45:26.464Z,32.29
2019-05-19T12:47:52.645Z,32.95
2019-05-19T12:50:19.078Z,33.48
2019-05-19T12:52:45.256Z,34.10
2019-05-19T12:55:11.736Z,33.90
2019-05-19T12:57:37.993Z,34.38
2019-05-19T13:00:04.922Z,33.92
2019-05-19T13:02:31.214Z,33.89
2019-05-19T13:05:04.719Z,33.71
2019-05-19T13:07:25.430Z,34.01
2019-05-19T13:09:51.574Z,34.44
2019-05-19T13:12:17.723Z,35.49
2019-05-19T13:14:44.912Z,36.47
2019-05-19T13:17:12.081Z,37.41
2019-05-19T13:19:38.384Z,37.41
2019-05-19T13:22:04.607Z,36.52
2019-05-19T13:24:30.919Z,36.52
2019-05-19T13:26:57.205Z,36.75
2019-05-19T13:29:24.478Z,37.05
2019-05-19T13:31:50.658Z,36.30
2019-05-19T13:34:16.929Z,36.30
2019-05-19T13:36:43.026Z,35.99
2019-05-19T13:39:09.431Z,36.34
2019-05-19T13:41:35.547Z,36.14
2019-05-19T13:44:01.857Z,35.35
2019-05-19T13:46:28.511Z,34.73
2019-05-19T13:48:54.914Z,34.52
2019-05-19T13:51:21.022Z,35.72
2019-05-19T13:53:47.194Z,37.17
2019-05-19T13:56:13.384Z,37.01
2019-05-19T13:58:39.588Z,37.01
2019-05-19T14:01:05.798Z,37.88
2019-05-19T14:03:32.113Z,37.88
2019-05-19T14:05:58.217Z,37.93
2019-05-19T14:08:24.389Z,37.90
2019-05-19T14:10:50.538Z,38.31
2019-05-19T14:13:16.748Z,39.23
2019-05-19T14:15:42.833Z,40.20
2019-05-19T14:18:09.141Z,40.67
2019-05-19T14:20:35.238Z,40.75
2019-05-19T14:23:01.477Z,41.27
2019-05-19T14:25:27.611Z,40.99
2019-05-19T14:27:53.877Z,41.31
2019-05-19T14:30:20.125Z,41.66
2019-05-19T14:32:46.365Z,42.33
2019-05-19T14:35:12.718Z,42.55
2019-05-19T14:37:39.166Z,42.19
2019-05-19T14:40:06.939Z,41.27
2019-05-19T14:42:49.885Z,40.92
2019-05-19T14:45:16.622Z,41.47
2019-05-19T14:47:43.857Z,42.22
2019-05-19T14:50:10.404Z,42.75
2019-05-19T14:52:36.574Z,42.69
2019-05-19T14:55:03.084Z,42.57
2019-05-19T14:57:43.563Z,42.68
2019-05-19T14:59:57.319Z,43.10
2019-05-19T15:02:23.839Z,43.68
2019-05-19T15:04:50.027Z,43.84
2019-05-19T15:07:16.194Z,43.34
2019-05-19T15:09:42.379Z,43.48
2019-05-19T15:12:08.511Z,43.43
2019-05-19T15:14:34.714Z,42.67
2019-05-19T15:17:00.867Z,41.65
2019-05-19T15:19:27.182Z,39.93
2019-05-19T15:21:55.315Z,38.38
2019-05-19T15:24:21.525Z,37.48
2019-05-19T15:26:47.678Z,35.97
2019-05-19T15:29:13.837Z,34.86
2019-05-19T15:31:39.989Z,33.52
2019-05-19T15:34:06.246Z,33.36
2019-05-19T15:36:32.415Z,33.17
2019-05-19T15:38:58.495Z,32.83
2019-05-19T15:41:24.836Z,32.50
2019-05-19T15:43:52.211Z,31.81
2019-05-19T15:46:18.544Z,31.56
2019-05-19T15:48:44.737Z,31.51
2019-05-19T15:51:10.977Z,31.02
2019-05-19T15:53:37.398Z,29.76
2019-05-19T15:56:03.534Z,28.95
2019-05-19T15:58:30.378Z,28.48
2019-05-19T16:00:56.470Z,27.87
2019-05-19T16:03:22.863Z,27.45
2019-05-19T16:05:49.188Z,27.11
2019-05-19T16:08:15.377Z,26.64
2019-05-19T16:10:41.948Z,26.28
2019-05-19T16:13:08.156Z,25.94
2019-05-19T16:15:34.574Z,25.70
2019-05-19T16:18:00.730Z,25.63
2019-05-19T16:20:26.970Z,25.47
2019-05-19T16:22:53.297Z,25.52
2019-05-19T16:25:19.598Z,25.67
2019-05-19T16:27:45.805Z,25.67
2019-05-19T16:30:12.166Z,25.46
2019-05-19T16:32:39.286Z,25.38
2019-05-19T16:35:05.830Z,25.46
2019-05-19T16:37:33.364Z,25.47
2019-05-19T16:39:59.669Z,25.26
2019-05-19T16:42:26.210Z,24.89
2019-05-19T16:44:52.354Z,24.65
2019-05-19T16:47:18.828Z,24.47
2019-05-19T16:49:45.102Z,24.39
2019-05-19T16:52:11.357Z,24.29
2019-05-19T16:54:42.509Z,24.09
2019-05-19T16:57:07.783Z,23.92
2019-05-19T16:59:33.907Z,23.79
2019-05-19T17:02:00.073Z,23.69
2019-05-19T17:04:26.281Z,23.53
2019-05-19T17:06:53.623Z,23.34
2019-05-19T17:09:19.856Z,23.20
2019-05-19T17:11:46.100Z,22.97
2019-05-19T17:14:12.496Z,22.79
2019-05-19T17:16:38.746Z,22.75
2019-05-19T17:19:04.944Z,22.65
2019-05-19T17:21:31.074Z,22.62
2019-05-19T17:27:15.443Z,22.59
2019-05-19T17:29:41.783Z,22.48
2019-05-19T17:32:08.029Z,22.35
2019-05-19T17:34:34.260Z,22.20
2019-05-19T17:37:00.516Z,22.08
2019-05-19T17:39:26.745Z,21.96
2019-05-19T17:41:53.026Z,21.85
2019-05-19T17:44:19.202Z,21.81
2019-05-19T17:46:45.430Z,21.63
2019-05-19T17:49:11.526Z,21.47
2019-05-19T17:51:37.737Z,21.32
2019-05-19T17:54:04.030Z,21.24
2019-05-19T17:56:30.833Z,21.17
2019-05-19T17:58:57.322Z,21.05
2019-05-19T18:01:23.536Z,21.01
2019-05-19T18:03:50.481Z,20.90
2019-05-19T18:06:16.744Z,20.83
2019-05-19T18:08:42.973Z,20.78
2019-05-19T18:11:09.219Z,20.71
2019-05-19T18:13:35.469Z,20.65
2019-05-19T18:16:01.791Z,20.54
2019-05-19T18:18:28.136Z,20.42
2019-05-19T18:20:54.392Z,20.23
2019-05-19T18:23:20.593Z,20.21
2019-05-19T18:25:46.682Z,20.14
2019-05-19T18:28:12.875Z,20.08
2019-05-19T18:30:38.951Z,20.02
2019-05-19T18:33:05.151Z,19.93
2019-05-19T18:35:31.390Z,19.83
2019-05-19T18:37:57.621Z,19.72
2019-05-19T18:40:23.880Z,19.62
2019-05-19T18:42:50.103Z,19.54
2019-05-19T18:45:16.419Z,19.43
2019-05-19T18:47:42.624Z,19.38
2019-05-19T18:50:08.972Z,19.29
2019-05-19T18:52:35.220Z,19.21
2019-05-19T18:55:01.819Z,19.15
2019-05-19T18:57:27.955Z,19.01
2019-05-19T18:59:54.181Z,18.87
2019-05-19T19:02:20.641Z,18.77
2019-05-19T19:04:47.203Z,18.65
2019-05-19T19:07:13.464Z,18.54
2019-05-19T19:09:39.669Z,18.42
2019-05-19T19:12:05.835Z,18.33
2019-05-19T19:14:31.987Z,18.26
2019-05-19T19:16:58.201Z,18.17
2019-05-19T19:19:24.320Z,18.10
2019-05-19T19:21:50.595Z,18.03
2019-05-19T19:24:16.723Z,17.98
2019-05-19T19:26:42.916Z,17.91
2019-05-19T19:29:09.008Z,17.72
2019-05-19T19:31:47.759Z,17.81
2019-05-19T19:34:03.517Z,17.61
2019-05-19T19:36:29.819Z,17.69
2019-05-19T19:38:56.038Z,17.64
2019-05-19T19:41:22.142Z,17.51
2019-05-19T19:43:48.336Z,17.48
2019-05-19T19:46:15.594Z,17.45
2019-05-19T19:48:41.854Z,17.37
2019-05-19T19:51:08.202Z,17.34
2019-05-19T19:53:34.464Z,17.26
2019-05-19T19:56:00.752Z,17.20
2019-05-19T19:58:27.009Z,17.15
2019-05-19T20:00:53.239Z,17.11
2019-05-19T20:03:19.678Z,17.06
2019-05-19T20:05:46.050Z,17.03
2019-05-19T20:08:12.423Z,16.96
2019-05-19T20:10:38.522Z,16.90
2019-05-19T20:13:04.970Z,16.80
2019-05-19T20:15:31.127Z,16.72
2019-05-19T20:17:57.229Z,16.68
2019-05-19T20:20:24.245Z,16.61
2019-05-19T20:22:50.724Z,16.54
2019-05-19T20:25:16.955Z,16.49
2019-05-19T20:27:43.108Z,16.43
2019-05-19T20:30:09.631Z,16.39
2019-05-19T20:32:35.992Z,16.34
2019-05-19T20:35:03.220Z,16.30
2019-05-19T20:37:29.522Z,16.26
2019-05-19T20:39:55.621Z,16.22
2019-05-19T20:42:21.836Z,16.19
2019-05-19T20:44:47.934Z,16.17
2019-05-19T20:47:14.163Z,16.14
2019-05-19T20:49:40.267Z,16.11
2019-05-19T20:52:06.486Z,16.07
2019-05-19T20:54:32.583Z,16.04
2019-05-19T20:56:59.000Z,16.01
2019-05-19T20:59:26.284Z,15.99
2019-05-19T21:01:52.476Z,15.93
2019-05-19T21:04:18.596Z,15.87
2019-05-19T21:06:45.657Z,15.84
2019-05-19T21:09:12.008Z,15.83
2019-05-19T21:11:38.276Z,15.79
2019-05-19T21:14:04.645Z,15.77
2019-05-19T21:16:30.838Z,15.74
2019-05-19T21:19:02.757Z,15.70
2019-05-19T21:21:28.952Z,15.67
2019-05-19T21:23:55.091Z,15.61
2019-05-19T21:26:21.245Z,15.59
2019-05-19T21:28:47.377Z,15.57
2019-05-19T21:31:14.634Z,15.56
2019-05-19T21:33:40.831Z,15.59
2019-05-19T21:36:07.054Z,15.60
2019-05-19T21:38:33.289Z,15.61
2019-05-19T21:40:59.469Z,15.61
2019-05-19T21:43:25.679Z,15.62
2019-05-19T21:45:51.779Z,15.65
2019-05-19T21:48:19.867Z,15.66
2019-05-19T21:50:45.973Z,15.65
2019-05-19T21:53:12.181Z,15.62
2019-05-19T21:55:38.275Z,15.60
2019-05-19T21:58:04.598Z,15.56
2019-05-19T22:00:31.263Z,15.56
2019-05-19T22:02:57.584Z,15.58
2019-05-19T22:05:23.667Z,15.59
2019-05-19T22:07:57.663Z,15.60
2019-05-19T22:10:23.861Z,15.61
2019-05-19T22:12:50.049Z,15.65
2019-05-19T22:15:16.303Z,15.68
2019-05-19T22:17:42.460Z,15.74
2019-05-19T22:20:08.794Z,15.77
2019-05-19T22:22:35.005Z,15.75
2019-05-19T22:25:01.129Z,15.73
2019-05-19T22:27:27.326Z,15.69
2019-05-19T22:29:53.429Z,15.65
2019-05-19T22:32:19.631Z,15.65
2019-05-19T22:34:45.717Z,15.61
2019-05-19T22:37:12.010Z,15.61
2019-05-19T22:39:38.147Z,15.62
2019-05-19T22:42:04.554Z,15.67
2019-05-19T22:44:30.667Z,15.67
2019-05-19T22:46:56.861Z,15.72
2019-05-19T22:49:23.005Z,15.79
2019-05-19T22:51:49.197Z,15.85
2019-05-19T22:54:15.314Z,15.88
2019-05-19T22:56:41.523Z,15.92
2019-05-19T22:59:19.346Z,15.94
2019-05-19T23:01:50.749Z,15.93
2019-05-19T23:04:05.114Z,15.92
2019-05-19T23:06:31.247Z,15.88
2019-05-19T23:08:57.392Z,15.83
2019-05-19T23:11:23.802Z,15.80
2019-05-19T23:13:49.920Z,15.74
2019-05-19T23:16:16.214Z,15.70
2019-05-19T23:18:42.319Z,15.67
2019-05-19T23:21:08.669Z,15.65
2019-05-19T23:23:34.803Z,15.62
2019-05-19T23:26:01.054Z,15.65
2019-05-19T23:28:27.187Z,15.64
2019-05-19T23:30:53.323Z,15.65
2019-05-19T23:33:19.486Z,15.67
2019-05-19T23:35:45.841Z,15.68
2019-05-19T23:38:12.140Z,15.68
2019-05-19T23:40:38.414Z,15.69
2019-05-19T23:43:04.728Z,15.69
2019-05-19T23:45:30.844Z,15.66
2019-05-19T23:47:57.056Z,15.62
2019-05-19T23:50:23.251Z,15.60
2019-05-19T23:52:49.495Z,15.59
2019-05-19T23:55:15.945Z,15.60
2019-05-19T23:57:42.189Z,15.61
